createdAt,value
2022-11-27T00:08:15.302Z,101670.91
2022-11-27T00:23:03.705Z,101630.05
2022-11-27T00:37:52.464Z,101621.45
2022-11-27T00:52:41.848Z,101613.74
2022-11-27T01:07:32.072Z,101600.98
2022-11-27T01:22:22.059Z,101594.86
2022-11-27T01:37:12.270Z,101589.25
2022-11-27T01:52:02.562Z,101597.62
2022-11-27T02:06:53.488Z,101594.70
2022-11-27T02:21:45.816Z,101588.19
2022-11-27T02:36:39.692Z,101607.47
2022-11-27T02:51:34.973Z,101573.83
2022-11-27T03:06:28.000Z,101558.08
2022-11-27T03:21:30.232Z,101527.95
2022-11-27T03:36:25.405Z,101525.41
2022-11-27T03:51:22.357Z,101505.35
2022-11-27T04:06:16.275Z,101509.73
2022-11-27T04:21:07.445Z,101503.69
2022-11-27T04:35:58.283Z,101503.70
2022-11-27T04:50:49.282Z,101478.33
2022-11-27T05:05:39.274Z,101463.84
2022-11-27T05:20:30.024Z,101466.03
2022-11-27T05:35:20.027Z,101460.34
2022-11-27T05:50:10.783Z,101455.08
2022-11-27T06:05:01.172Z,101455.96
2022-11-27T06:19:51.327Z,101419.62
2022-11-27T06:34:41.356Z,101390.70
2022-11-27T06:49:30.366Z,101416.92
2022-11-27T07:04:20.132Z,101405.12
2022-11-27T07:19:10.552Z,101367.00
2022-11-27T07:34:00.220Z,101367.42
2022-11-27T07:48:50.573Z,101398.47
2022-11-27T08:03:40.800Z,101384.11
2022-11-27T08:18:30.862Z,101307.98
2022-11-27T08:33:32.612Z,101325.02
2022-11-27T08:48:23.437Z,101308.86
2022-11-27T09:03:15.164Z,101339.53
2022-11-27T09:18:05.717Z,101325.08
2022-11-27T09:32:56.094Z,101302.73
2022-11-27T09:47:50.207Z,101301.37
2022-11-27T10:02:44.059Z,101293.45
2022-11-27T10:17:38.273Z,101277.80
2022-11-27T10:32:54.765Z,101252.94
2022-11-27T10:47:22.448Z,101195.35
2022-11-27T11:02:30.560Z,101159.64
2022-11-27T11:17:25.898Z,101157.12
2022-11-27T11:32:21.100Z,101157.17
2022-11-27T11:47:18.757Z,101126.12
2022-11-27T12:02:33.820Z,101106.75
2022-11-27T12:17:39.705Z,101091.34
2022-11-27T12:32:39.296Z,101078.77
2022-11-27T12:47:40.409Z,101055.77
2022-11-27T13:02:42.778Z,101037.63
2022-11-27T13:17:39.649Z,101044.08
2022-11-27T13:32:38.692Z,101018.59
2022-11-27T13:47:31.276Z,100984.77
2022-11-27T14:02:22.373Z,100942.54
2022-11-27T14:17:11.925Z,100915.66
2022-11-27T14:32:04.540Z,100895.00
2022-11-27T14:46:55.628Z,100876.00
2022-11-27T15:01:46.239Z,100863.18
2022-11-27T15:16:36.356Z,100846.55
2022-11-27T15:31:32.798Z,100811.87
2022-11-27T15:46:26.446Z,100800.98
2022-11-27T16:01:17.183Z,100784.67
2022-11-27T16:16:07.761Z,100770.76
2022-11-27T16:30:58.147Z,100753.77
2022-11-27T16:45:48.326Z,100743.86
2022-11-27T17:00:38.775Z,100711.72
2022-11-27T17:15:29.473Z,100695.86
2022-11-27T17:30:19.738Z,100691.36
2022-11-27T17:45:09.857Z,100627.75
2022-11-27T18:00:00.610Z,100604.73
2022-11-27T18:14:55.407Z,100591.80
2022-11-27T18:29:48.540Z,100563.34
2022-11-27T18:44:44.804Z,100570.69
2022-11-27T18:59:32.646Z,100527.33
2022-11-27T19:14:23.499Z,100501.36
2022-11-27T19:29:14.249Z,100507.18
2022-11-27T19:44:03.713Z,100492.78
2022-11-27T19:58:54.834Z,100487.40
2022-11-27T20:28:36.130Z,100496.16
2022-11-27T20:43:26.937Z,100472.81
2022-11-27T20:58:17.628Z,100455.70
2022-11-27T21:13:08.085Z,100458.81
2022-11-27T21:27:59.251Z,100432.52
2022-11-27T21:42:50.119Z,100416.59
2022-11-27T21:57:41.214Z,100400.35
2022-11-27T22:12:32.030Z,100380.73
2022-11-27T22:27:23.335Z,100354.79
2022-11-27T22:42:14.253Z,100335.00
2022-11-27T22:57:05.242Z,100315.25
2022-11-27T23:11:55.735Z,100330.22
2022-11-27T23:41:48.915Z,100323.14
2022-11-27T23:56:39.681Z,100300.02
